createdAt,value
2018-05-18T00:01:38.423Z,7.27
2018-05-18T00:04:07.308Z,6.27
2018-05-18T00:06:42.291Z,6.33
2018-05-18T00:09:10.926Z,6.73
2018-05-18T00:11:44.653Z,6.43
2018-05-18T00:14:13.527Z,6.43
2018-05-18T00:16:54.811Z,6.03
2018-05-18T00:19:24.132Z,6.53
2018-05-18T00:21:52.616Z,7.13
2018-05-18T00:24:21.135Z,6.23
2018-05-18T00:26:52.038Z,6.37
2018-05-18T00:29:21.272Z,6.40
2018-05-18T00:31:54.570Z,7.27
2018-05-18T00:34:23.426Z,5.97
2018-05-18T00:36:56.286Z,7.03
2018-05-18T00:39:25.409Z,6.27
2018-05-18T00:41:58.973Z,7.37
2018-05-18T00:44:28.676Z,7.20
2018-05-18T00:47:01.905Z,6.47
2018-05-18T00:49:30.655Z,7.13
2018-05-18T00:52:04.748Z,8.07
2018-05-18T00:54:34.287Z,7.90
2018-05-18T00:57:07.029Z,7.13
2018-05-18T00:59:36.536Z,7.70
2018-05-18T01:02:10.717Z,7.20
2018-05-18T01:04:40.201Z,7.13
2018-05-18T01:07:13.567Z,6.80
2018-05-18T01:09:43.518Z,6.90
2018-05-18T01:12:15.081Z,6.40
2018-05-18T01:14:44.595Z,6.53
2018-05-18T01:17:17.362Z,7.77
2018-05-18T01:19:47.302Z,7.80
2018-05-18T01:22:20.632Z,7.50
2018-05-18T01:24:49.900Z,6.73
2018-05-18T01:27:22.403Z,6.33
2018-05-18T01:29:51.298Z,6.63
2018-05-18T01:32:25.234Z,6.90
2018-05-18T01:34:54.495Z,6.90
2018-05-18T01:37:27.711Z,6.40
2018-05-18T01:39:57.205Z,7.73
2018-05-18T01:42:28.386Z,7.80
2018-05-18T01:44:58.274Z,8.07
2018-05-18T01:47:39.983Z,6.40
2018-05-18T01:50:08.607Z,6.87
2018-05-18T01:52:38.474Z,7.10
2018-05-18T01:55:08.509Z,6.80
2018-05-18T01:57:37.391Z,6.07
2018-05-18T02:00:06.301Z,6.17
2018-05-18T02:02:39.533Z,6.17
2018-05-18T02:05:09.094Z,5.73
2018-05-18T02:07:41.419Z,6.60
2018-05-18T02:10:10.926Z,6.17
2018-05-18T02:12:43.476Z,6.30
2018-05-18T02:15:12.274Z,6.27
2018-05-18T02:17:45.481Z,6.00
2018-05-18T02:20:14.973Z,6.33
2018-05-18T02:22:48.184Z,6.07
2018-05-18T02:25:17.811Z,6.43
2018-05-18T02:27:59.543Z,6.63
2018-05-18T02:30:28.400Z,6.50
2018-05-18T02:32:57.248Z,6.40
2018-05-18T02:35:26.098Z,5.93
2018-05-18T02:37:55.917Z,6.03
2018-05-18T02:40:24.420Z,6.03
2018-05-18T02:43:07.062Z,5.67
2018-05-18T02:45:36.262Z,5.57
2018-05-18T02:48:05.886Z,5.73
2018-05-18T02:50:34.423Z,5.57
2018-05-18T02:53:04.752Z,6.27
2018-05-18T02:55:34.412Z,5.93
2018-05-18T02:58:05.151Z,5.53
2018-05-18T03:00:34.147Z,5.70
2018-05-18T03:03:03.079Z,5.80
2018-05-18T03:05:35.942Z,6.77
2018-05-18T03:08:06.673Z,6.50
2018-05-18T03:10:37.121Z,6.47
2018-05-18T03:13:06.035Z,5.70
2018-05-18T03:15:34.908Z,7.07
2018-05-18T03:18:04.414Z,5.83
2018-05-18T03:20:33.647Z,5.77
2018-05-18T03:23:03.180Z,5.77
2018-05-18T03:25:31.663Z,6.10
2018-05-18T03:28:01.163Z,5.03
2018-05-18T03:30:30.163Z,6.23
2018-05-18T03:32:59.789Z,5.40
2018-05-18T03:35:29.767Z,5.40
2018-05-18T03:38:00.161Z,5.63
2018-05-18T03:40:29.751Z,6.07
2018-05-18T03:42:59.763Z,5.73
2018-05-18T03:45:29.734Z,5.67
2018-05-18T03:47:58.225Z,5.37
2018-05-18T03:50:31.167Z,5.73
2018-05-18T03:52:59.903Z,6.43
2018-05-18T03:55:40.742Z,4.50
2018-05-18T03:58:09.917Z,4.73
2018-05-18T04:00:39.582Z,5.30
2018-05-18T04:04:16.678Z,5.77
2018-05-18T04:06:57.538Z,5.23
2018-05-18T04:09:27.058Z,5.47
2018-05-18T04:11:56.580Z,5.60
2018-05-18T04:14:26.170Z,6.50
2018-05-18T04:16:55.150Z,5.50
2018-05-18T04:19:23.655Z,5.03
2018-05-18T04:21:52.927Z,5.93
2018-05-18T04:24:22.445Z,5.73
2018-05-18T04:26:51.320Z,6.03
2018-05-18T04:29:20.164Z,5.43
2018-05-18T04:31:50.655Z,5.87
2018-05-18T04:34:19.910Z,5.40
2018-05-18T04:36:52.758Z,5.07
2018-05-18T04:39:22.051Z,6.33
2018-05-18T04:41:55.287Z,5.20
2018-05-18T04:44:23.782Z,5.27
2018-05-18T04:46:59.246Z,5.47
2018-05-18T04:49:27.708Z,5.60
2018-05-18T04:52:00.562Z,4.57
2018-05-18T04:54:30.059Z,4.83
2018-05-18T04:57:03.705Z,4.90
2018-05-18T04:59:33.064Z,4.73
2018-05-18T05:02:06.368Z,4.63
2018-05-18T05:04:36.389Z,4.60
2018-05-18T05:07:09.958Z,4.77
2018-05-18T05:09:39.499Z,6.10
2018-05-18T05:12:14.356Z,4.77
2018-05-18T05:14:43.189Z,5.30
2018-05-18T05:17:14.651Z,4.03
2018-05-18T05:19:43.540Z,4.10
2018-05-18T05:22:24.790Z,4.27
2018-05-18T05:24:54.082Z,3.87
2018-05-18T05:27:24.490Z,4.70
2018-05-18T05:29:54.295Z,4.00
2018-05-18T05:32:23.556Z,3.97
2018-05-18T05:34:52.061Z,4.80
2018-05-18T05:37:23.197Z,5.10
2018-05-18T05:39:51.711Z,4.47
2018-05-18T05:42:33.773Z,4.37
2018-05-18T05:45:02.680Z,4.00
2018-05-18T05:47:31.588Z,4.70
2018-05-18T05:50:01.266Z,4.23
2018-05-18T05:52:30.143Z,4.23
2018-05-18T05:54:58.667Z,4.80
2018-05-18T05:57:31.613Z,3.63
2018-05-18T06:00:00.183Z,4.23
2018-05-18T06:02:34.384Z,4.83
2018-05-18T06:05:04.193Z,5.03
2018-05-18T06:07:46.057Z,4.57
2018-05-18T06:10:16.207Z,4.40
2018-05-18T06:12:45.082Z,4.30
2018-05-18T06:15:24.655Z,4.40
2018-05-18T06:17:53.488Z,4.97
2018-05-18T06:20:21.999Z,4.40
2018-05-18T06:22:51.667Z,4.97
2018-05-18T06:25:20.408Z,4.03
2018-05-18T06:27:49.967Z,5.00
2018-05-18T06:30:18.536Z,5.10
2018-05-18T06:32:49.327Z,4.80
2018-05-18T06:35:18.749Z,4.83
2018-05-18T06:38:00.472Z,4.07
2018-05-18T06:40:29.202Z,4.40
2018-05-18T06:42:58.824Z,4.83
2018-05-18T06:45:28.089Z,4.87
2018-05-18T06:47:57.846Z,5.53
2018-05-18T06:50:26.730Z,4.73
2018-05-18T06:52:59.879Z,5.03
2018-05-18T06:55:28.639Z,4.80
2018-05-18T06:58:03.214Z,4.40
2018-05-18T07:00:32.783Z,4.27
2018-05-18T07:03:05.439Z,4.73
2018-05-18T07:05:35.109Z,4.83
2018-05-18T07:08:09.065Z,4.57
2018-05-18T07:10:37.716Z,3.83
2018-05-18T07:13:11.974Z,3.60
2018-05-18T07:15:42.280Z,4.47
2018-05-18T07:18:14.783Z,3.90
2018-05-18T07:20:48.154Z,4.07
2018-05-18T07:23:17.860Z,5.07
2018-05-18T07:25:47.441Z,4.30
2018-05-18T07:28:17.998Z,5.20
2018-05-18T07:30:47.150Z,4.87
2018-05-18T07:33:19.908Z,4.23
2018-05-18T07:35:48.874Z,4.43
2018-05-18T07:38:23.101Z,4.17
2018-05-18T07:40:52.606Z,3.70
2018-05-18T07:43:23.993Z,4.67
2018-05-18T07:45:53.512Z,4.70
2018-05-18T07:48:26.603Z,5.23
2018-05-18T07:50:55.198Z,5.07
2018-05-18T07:53:38.029Z,4.63
2018-05-18T07:56:07.852Z,4.13
2018-05-18T07:58:36.750Z,4.80
2018-05-18T08:01:06.329Z,4.83
2018-05-18T08:03:36.165Z,4.40
2018-05-18T08:06:04.740Z,5.33
2018-05-18T08:08:37.590Z,5.00
2018-05-18T08:11:07.238Z,4.63
2018-05-18T08:13:40.873Z,4.47
2018-05-18T08:16:11.203Z,4.37
2018-05-18T08:18:41.218Z,4.97
2018-05-18T08:21:10.738Z,5.43
2018-05-18T08:23:43.389Z,4.97
2018-05-18T08:26:13.366Z,5.00
2018-05-18T08:28:55.483Z,4.77
2018-05-18T08:31:25.290Z,5.07
2018-05-18T08:33:54.923Z,4.60
2018-05-18T08:36:23.420Z,5.63
2018-05-18T08:38:52.391Z,5.37
2018-05-18T08:41:21.938Z,5.40
2018-05-18T08:43:54.311Z,4.47
2018-05-18T08:46:24.443Z,4.87
2018-05-18T08:48:55.976Z,5.67
2018-05-18T08:51:25.518Z,4.77
2018-05-18T08:53:58.439Z,4.40
2018-05-18T08:56:27.716Z,4.80
2018-05-18T08:59:03.602Z,4.33
2018-05-18T09:01:33.486Z,4.60
2018-05-18T09:04:05.362Z,5.17
2018-05-18T09:06:34.853Z,4.50
2018-05-18T09:09:16.079Z,4.47
2018-05-18T09:11:45.005Z,5.00
2018-05-18T09:14:15.555Z,4.67
2018-05-18T09:16:45.338Z,5.67
2018-05-18T09:19:14.432Z,5.37
2018-05-18T09:21:45.194Z,5.60
2018-05-18T09:24:16.049Z,5.03
2018-05-18T09:26:46.719Z,5.13
2018-05-18T09:29:18.532Z,5.47
2018-05-18T09:31:48.615Z,5.83
2018-05-18T09:34:19.684Z,6.47
2018-05-18T09:36:49.393Z,5.23
2018-05-18T09:39:21.666Z,5.00
2018-05-18T09:41:50.607Z,4.73
2018-05-18T09:44:23.237Z,6.03
2018-05-18T09:46:52.927Z,5.13
2018-05-18T09:49:26.148Z,5.50
2018-05-18T09:51:55.661Z,5.67
2018-05-18T09:54:37.980Z,5.70
2018-05-18T09:57:06.779Z,5.67
2018-05-18T09:59:36.336Z,5.30
2018-05-18T10:02:05.869Z,5.37
2018-05-18T10:04:34.944Z,5.53
2018-05-18T10:07:04.746Z,4.73
2018-05-18T10:09:36.490Z,5.93
2018-05-18T10:12:05.510Z,5.43
2018-05-18T10:14:47.071Z,5.50
2018-05-18T10:17:17.369Z,6.67
2018-05-18T10:19:47.437Z,6.00
2018-05-18T10:22:17.571Z,5.77
2018-05-18T10:24:47.283Z,6.17
2018-05-18T10:27:16.611Z,5.77
2018-05-18T10:29:49.093Z,6.23
2018-05-18T10:32:19.109Z,5.87
2018-05-18T10:34:51.335Z,6.00
2018-05-18T10:37:20.174Z,5.10
2018-05-18T10:39:53.026Z,6.83
2018-05-18T10:42:22.334Z,5.57
2018-05-18T10:44:57.169Z,5.93
2018-05-18T11:00:36.766Z,6.57
2018-05-18T11:03:05.923Z,6.27
2018-05-18T11:05:36.771Z,5.67
2018-05-18T11:08:18.381Z,5.93
2018-05-18T11:10:46.988Z,5.67
2018-05-18T11:13:16.633Z,6.00
2018-05-18T11:15:46.218Z,6.73
2018-05-18T11:18:16.314Z,6.67
2018-05-18T11:20:45.877Z,8.10
2018-05-18T11:23:18.101Z,7.87
2018-05-18T11:25:47.690Z,6.90
2018-05-18T11:28:20.800Z,7.80
2018-05-18T11:30:50.354Z,7.00
2018-05-18T11:33:22.436Z,6.57
2018-05-18T11:35:51.947Z,6.60
2018-05-18T11:38:24.164Z,7.07
2018-05-18T11:40:53.824Z,6.90
2018-05-18T11:43:25.888Z,6.83
2018-05-18T11:45:55.203Z,7.13
2018-05-18T11:48:27.896Z,7.10
2018-05-18T11:50:57.192Z,6.60
2018-05-18T11:53:30.346Z,6.57
2018-05-18T11:56:00.120Z,6.83
2018-05-18T11:58:41.178Z,6.87
2018-05-18T12:01:10.958Z,6.67
2018-05-18T12:03:40.479Z,7.03
2018-05-18T12:06:10.024Z,6.70
2018-05-18T12:08:38.848Z,6.80
2018-05-18T12:11:07.773Z,7.10
2018-05-18T12:13:39.579Z,7.67
2018-05-18T12:16:09.755Z,7.43
2018-05-18T12:18:42.186Z,7.77
2018-05-18T12:21:12.301Z,8.43
2018-05-18T12:23:44.726Z,7.07
2018-05-18T12:26:14.377Z,8.83
2018-05-18T12:28:57.559Z,7.43
2018-05-18T12:31:27.576Z,7.37
2018-05-18T12:33:56.732Z,8.27
2018-05-18T12:36:25.740Z,7.67
2018-05-18T12:38:54.571Z,7.97
2018-05-18T12:41:23.171Z,8.00
2018-05-18T12:44:05.890Z,8.40
2018-05-18T12:46:34.784Z,8.20
2018-05-18T12:49:04.333Z,9.20
2018-05-18T12:51:33.663Z,9.47
2018-05-18T12:54:03.622Z,8.20
2018-05-18T12:56:34.304Z,7.40
2018-05-18T12:59:06.308Z,8.10
2018-05-18T13:01:36.082Z,7.87
2018-05-18T13:04:07.250Z,8.30
2018-05-18T13:06:36.917Z,7.50
2018-05-18T13:09:11.518Z,8.53
2018-05-18T13:11:41.095Z,8.90
2018-05-18T13:14:14.126Z,9.07
2018-05-18T13:16:45.250Z,8.57
2018-05-18T13:19:16.294Z,9.30
2018-05-18T13:24:46.891Z,10.17
2018-05-18T13:27:19.395Z,10.27
2018-05-18T13:29:47.964Z,9.70
2018-05-18T13:32:29.763Z,10.63
2018-05-18T13:34:59.045Z,9.83
2018-05-18T13:37:28.611Z,9.47
2018-05-18T13:39:58.146Z,9.50
2018-05-18T13:42:28.508Z,10.30
2018-05-18T13:44:58.215Z,9.43
2018-05-18T13:47:27.657Z,9.53
2018-05-18T13:49:57.566Z,9.97
2018-05-18T13:52:39.611Z,8.53
2018-05-18T13:55:09.390Z,8.57
2018-05-18T13:57:38.951Z,8.30
2018-05-18T14:00:08.252Z,9.07
2018-05-18T14:02:37.542Z,9.47
2018-05-18T14:05:07.072Z,9.03
2018-05-18T14:07:37.398Z,9.70
2018-05-18T14:10:07.015Z,8.90
2018-05-18T14:12:40.263Z,10.20
2018-05-18T14:15:09.659Z,9.93
2018-05-18T14:17:50.583Z,9.80
2018-05-18T14:20:20.704Z,8.87
2018-05-18T14:22:50.479Z,10.33
2018-05-18T14:25:20.604Z,10.80
2018-05-18T14:27:50.183Z,9.57
2018-05-18T14:30:18.756Z,9.90
2018-05-18T14:32:49.765Z,9.17
2018-05-18T14:35:19.572Z,11.00
2018-05-18T14:37:55.390Z,9.60
2018-05-18T14:40:25.117Z,8.37
2018-05-18T14:42:56.834Z,8.37
2018-05-18T14:45:25.852Z,8.23
2018-05-18T14:48:07.713Z,8.50
2018-05-18T14:50:37.368Z,9.13
2018-05-18T14:53:07.373Z,8.90
2018-05-18T14:55:37.109Z,9.20
2018-05-18T14:58:06.871Z,9.33
2018-05-18T15:00:36.371Z,9.13
2018-05-18T15:03:08.503Z,9.87
2018-05-18T15:05:37.824Z,9.20
2018-05-18T15:08:19.872Z,7.50
2018-05-18T15:10:50.376Z,8.00
2018-05-18T15:13:19.950Z,8.10
2018-05-18T15:15:50.632Z,7.53
2018-05-18T15:18:21.025Z,8.33
2018-05-18T15:20:49.567Z,8.10
2018-05-18T15:23:18.503Z,9.33
2018-05-18T15:25:47.691Z,8.13
2018-05-18T15:28:20.351Z,8.37
2018-05-18T15:30:49.672Z,9.43
2018-05-18T15:33:23.314Z,8.63
2018-05-18T15:35:52.615Z,9.00
2018-05-18T15:51:58.379Z,8.60
2018-05-18T15:54:31.446Z,8.53
2018-05-18T15:57:01.257Z,7.83
2018-05-18T15:59:34.522Z,8.10
2018-05-18T16:02:03.855Z,7.63
2018-05-18T16:04:36.020Z,8.47
2018-05-18T16:07:04.575Z,9.50
2018-05-18T16:09:38.924Z,9.67
2018-05-18T16:12:08.491Z,8.27
2018-05-18T16:14:41.317Z,6.97
2018-05-18T16:17:11.131Z,7.60
2018-05-18T16:19:52.235Z,7.40
2018-05-18T16:22:20.783Z,7.83
2018-05-18T16:24:50.698Z,7.37
2018-05-18T16:27:20.626Z,6.93
2018-05-18T16:29:50.383Z,6.93
2018-05-18T16:32:20.134Z,8.47
2018-05-18T16:34:51.473Z,7.20
2018-05-18T16:37:21.005Z,7.23
2018-05-18T16:40:02.919Z,6.97
2018-05-18T16:42:32.842Z,6.90
2018-05-18T16:45:02.511Z,7.83
2018-05-18T16:47:32.075Z,7.60
2018-05-18T16:50:01.626Z,6.97
2018-05-18T16:52:31.161Z,7.97
2018-05-18T16:55:02.075Z,7.70
2018-05-18T16:57:31.783Z,7.10
2018-05-18T17:00:05.366Z,6.57
2018-05-18T17:02:35.903Z,7.90
2018-05-18T17:05:07.803Z,7.10
2018-05-18T17:07:37.501Z,7.50
2018-05-18T17:10:18.987Z,7.87
2018-05-18T17:12:48.796Z,8.03
2018-05-18T17:15:17.362Z,8.10
2018-05-18T17:17:46.906Z,7.53
2018-05-18T17:20:16.414Z,8.10
2018-05-18T17:22:46.083Z,7.10
2018-05-18T17:25:16.888Z,7.60
2018-05-18T17:27:46.614Z,7.33
2018-05-18T17:30:28.327Z,7.67
2018-05-18T17:32:58.421Z,8.67
2018-05-18T17:35:27.942Z,7.70
2018-05-18T17:37:57.355Z,6.43
2018-05-18T17:40:26.679Z,8.13
2018-05-18T17:42:55.622Z,7.50
2018-05-18T17:45:27.468Z,7.07
2018-05-18T17:47:57.802Z,7.07
2018-05-18T17:50:29.962Z,7.27
2018-05-18T17:52:59.683Z,7.60
2018-05-18T17:55:31.709Z,7.73
2018-05-18T17:58:01.239Z,7.60
2018-05-18T18:00:42.275Z,7.53
2018-05-18T18:03:12.974Z,7.80
2018-05-18T18:05:42.686Z,7.40
2018-05-18T18:08:13.255Z,7.20
2018-05-18T18:10:41.923Z,7.17
2018-05-18T18:13:11.476Z,7.37
2018-05-18T18:15:40.733Z,6.90
2018-05-18T18:18:10.787Z,6.63
2018-05-18T18:20:43.652Z,7.77
2018-05-18T18:23:13.526Z,8.33
2018-05-18T18:25:46.113Z,7.07
2018-05-18T18:28:15.719Z,7.40
2018-05-18T18:30:48.825Z,7.43
2018-05-18T18:33:18.405Z,7.97
2018-05-18T18:35:49.487Z,7.77
2018-05-18T18:38:17.998Z,7.47
2018-05-18T18:41:00.165Z,8.33
2018-05-18T18:43:29.483Z,7.33
2018-05-18T18:45:58.818Z,7.27
2018-05-18T18:48:29.165Z,7.03
2018-05-18T18:50:58.722Z,7.03
2018-05-18T18:53:27.288Z,7.40
2018-05-18T18:56:01.551Z,8.53
2018-05-18T18:58:31.087Z,7.30
2018-05-18T19:01:04.088Z,6.50
2018-05-18T19:03:34.012Z,7.70
2018-05-18T19:06:15.180Z,7.80
2018-05-18T19:08:44.969Z,7.13
2018-05-18T19:11:14.553Z,7.27
2018-05-18T19:13:43.503Z,6.80
2018-05-18T19:16:13.041Z,7.50
2018-05-18T19:18:42.001Z,6.83
2018-05-18T19:21:14.930Z,6.47
2018-05-18T19:23:44.782Z,7.37
2018-05-18T19:26:17.364Z,7.07
2018-05-18T19:28:46.886Z,6.90
2018-05-18T19:31:20.124Z,6.80
2018-05-18T19:33:49.712Z,6.97
2018-05-18T19:36:22.339Z,6.63
2018-05-18T19:38:52.643Z,7.83
2018-05-18T19:41:23.679Z,9.17
2018-05-18T19:43:53.968Z,8.30
2018-05-18T19:46:26.554Z,6.73
2018-05-18T19:48:56.303Z,7.37
2018-05-18T19:51:29.386Z,7.60
2018-05-18T19:53:59.223Z,7.80
2018-05-18T19:56:31.596Z,8.33
2018-05-18T19:59:00.489Z,8.27
2018-05-18T20:01:33.551Z,8.07
2018-05-18T20:04:03.188Z,7.47
2018-05-18T20:06:44.511Z,7.50
2018-05-18T20:09:14.985Z,7.53
2018-05-18T20:11:43.964Z,7.37
2018-05-18T20:14:12.963Z,7.10
2018-05-18T20:16:42.970Z,7.07
2018-05-18T20:19:12.297Z,6.07
2018-05-18T20:21:44.707Z,6.67
2018-05-18T20:24:14.981Z,6.97
2018-05-18T20:26:47.609Z,6.57
2018-05-18T20:29:17.310Z,6.63
2018-05-18T20:31:49.330Z,6.67
2018-05-18T20:34:18.854Z,7.40
2018-05-18T20:36:59.997Z,6.67
2018-05-18T20:39:30.041Z,5.90
2018-05-18T20:42:00.259Z,6.90
2018-05-18T20:44:29.203Z,6.87
2018-05-18T20:46:58.488Z,6.93
2018-05-18T20:49:27.998Z,6.63
2018-05-18T20:51:59.388Z,6.70
2018-05-18T20:54:27.867Z,7.27
2018-05-18T20:57:01.748Z,6.97
2018-05-18T20:59:30.650Z,7.53
2018-05-18T21:02:12.712Z,7.93
2018-05-18T21:04:43.161Z,7.73
2018-05-18T21:07:14.327Z,7.03
2018-05-18T21:09:44.624Z,6.67
2018-05-18T21:12:14.777Z,6.97
2018-05-18T21:14:43.429Z,6.77
2018-05-18T21:17:12.881Z,7.00
2018-05-18T21:19:42.210Z,7.03
2018-05-18T21:22:14.975Z,7.03
2018-05-18T21:24:44.620Z,6.50
2018-05-18T21:27:18.001Z,6.53
2018-05-18T21:29:47.710Z,7.70
2018-05-18T21:32:19.806Z,7.27
2018-05-18T21:34:49.744Z,7.73
2018-05-18T21:37:20.710Z,7.33
2018-05-18T21:39:50.683Z,8.30
2018-05-18T21:42:31.615Z,7.70
2018-05-18T21:45:01.686Z,7.00
2018-05-18T21:47:32.022Z,7.40
2018-05-18T21:50:00.513Z,6.80
2018-05-18T21:52:29.042Z,7.50
2018-05-18T21:54:58.370Z,6.27
2018-05-18T21:57:30.696Z,7.43
2018-05-18T21:59:59.203Z,7.00
2018-05-18T22:02:32.739Z,6.40
2018-05-18T22:05:02.774Z,7.07
2018-05-18T22:07:34.556Z,6.60
2018-05-18T22:10:03.397Z,6.33
2018-05-18T22:12:37.138Z,6.07
2018-05-18T22:15:06.144Z,7.33
2018-05-18T22:17:39.658Z,6.90
2018-05-18T22:20:08.530Z,6.27
2018-05-18T22:22:42.129Z,7.23
2018-05-18T22:25:11.658Z,6.17
2018-05-18T22:27:45.036Z,6.73
2018-05-18T22:30:13.924Z,6.33
2018-05-18T22:32:48.019Z,6.13
2018-05-18T22:35:18.164Z,6.77
2018-05-18T22:37:50.627Z,6.57
2018-05-18T22:40:19.141Z,6.70
2018-05-18T22:42:52.035Z,5.90
2018-05-18T22:45:20.879Z,6.37
2018-05-18T22:47:53.755Z,6.80
2018-05-18T22:50:22.690Z,6.23
2018-05-18T22:52:59.877Z,6.37
2018-05-18T22:55:29.921Z,5.87
2018-05-18T22:58:00.832Z,5.77
2018-05-18T23:00:29.603Z,6.60
2018-05-18T23:03:03.344Z,5.73
2018-05-18T23:05:32.265Z,6.17
2018-05-18T23:08:06.062Z,6.53
2018-05-18T23:10:34.606Z,5.80
2018-05-18T23:13:08.014Z,6.37
2018-05-18T23:15:37.527Z,6.47
2018-05-18T23:18:11.681Z,6.03
2018-05-18T23:20:40.707Z,6.17
2018-05-18T23:23:13.830Z,6.67
2018-05-18T23:25:42.319Z,5.77
2018-05-18T23:28:25.327Z,6.20
2018-05-18T23:30:53.958Z,5.77
2018-05-18T23:33:23.622Z,6.10
2018-05-18T23:35:52.251Z,5.77
2018-05-18T23:38:20.882Z,5.47
2018-05-18T23:40:49.623Z,6.30
2018-05-18T23:43:23.139Z,6.70
2018-05-18T23:45:52.419Z,5.90
2018-05-18T23:48:25.961Z,5.87
2018-05-18T23:50:54.642Z,5.53
2018-05-18T23:53:36.483Z,6.37
2018-05-18T23:56:05.287Z,6.50
2018-05-18T23:58:35.376Z,6.47
